createdAt,value
2018-12-13T00:01:00.363Z,0.32
2018-12-13T00:03:30.617Z,0.26
2018-12-13T00:05:59.044Z,0.33
2018-12-13T00:08:27.383Z,0.28
2018-12-13T00:10:57.701Z,0.29
2018-12-13T00:13:26.039Z,0.24
2018-12-13T00:15:54.369Z,0.25
2018-12-13T00:18:22.734Z,0.19
2018-12-13T00:20:51.127Z,0.25
2018-12-13T00:23:19.475Z,0.28
2018-12-13T00:25:48.045Z,0.26
2018-12-13T00:28:16.384Z,0.29
2018-12-13T00:30:44.734Z,0.28
2018-12-13T00:33:13.078Z,0.32
2018-12-13T00:35:41.401Z,0.25
2018-12-13T00:38:09.771Z,0.29
2018-12-13T00:40:38.107Z,0.23
2018-12-13T00:43:06.429Z,0.16
2018-12-13T00:45:34.755Z,0.07
2018-12-13T00:48:04.405Z,0.02
2018-12-13T00:50:33.881Z,-0.01
2018-12-13T00:53:02.195Z,-0.12
2018-12-13T00:55:30.576Z,-0.14
2018-12-13T00:57:59.065Z,-0.23
2018-12-13T01:00:27.646Z,-0.31
2018-12-13T01:02:56.068Z,-0.38
2018-12-13T01:05:24.484Z,-0.45
2018-12-13T01:07:55.377Z,-0.50
2018-12-13T01:10:23.975Z,-0.56
2018-12-13T01:12:52.405Z,-0.61
2018-12-13T01:15:21.540Z,-0.66
2018-12-13T01:17:49.999Z,-0.70
2018-12-13T01:20:18.356Z,-0.76
2018-12-13T01:22:46.745Z,-0.75
2018-12-13T01:25:15.125Z,-0.79
2018-12-13T01:27:43.464Z,-0.82
2018-12-13T01:30:11.813Z,-0.88
2018-12-13T01:32:40.381Z,-0.99
2018-12-13T01:35:08.732Z,-1.05
2018-12-13T01:37:37.133Z,-1.01
2018-12-13T01:40:05.515Z,-1.09
2018-12-13T01:42:33.984Z,-0.98
2018-12-13T01:45:02.391Z,-0.96
2018-12-13T01:47:30.952Z,-0.90
2018-12-13T01:49:59.305Z,-1.01
2018-12-13T01:52:27.970Z,-1.04
2018-12-13T01:54:56.324Z,-1.07
2018-12-13T01:57:24.770Z,-1.05
2018-12-13T01:59:53.119Z,-1.03
2018-12-13T02:02:21.841Z,-1.04
2018-12-13T02:04:50.191Z,-1.03
2018-12-13T02:07:18.703Z,-1.02
2018-12-13T02:09:47.095Z,-1.02
2018-12-13T02:12:17.337Z,-1.03
2018-12-13T02:14:45.782Z,-1.03
2018-12-13T02:17:14.132Z,-1.03
2018-12-13T02:19:42.488Z,-1.05
2018-12-13T02:22:10.839Z,-1.03
2018-12-13T02:24:39.305Z,-1.12
2018-12-13T02:27:07.751Z,-1.14
2018-12-13T02:29:36.545Z,-1.16
2018-12-13T02:32:04.960Z,-1.18
2018-12-13T02:34:33.446Z,-1.22
2018-12-13T02:37:05.889Z,-1.27
2018-12-13T02:39:32.214Z,-1.24
2018-12-13T02:42:00.588Z,-1.21
2018-12-13T02:44:28.969Z,-1.17
2018-12-13T02:46:57.401Z,-1.19
2018-12-13T02:49:26.690Z,-1.20
2018-12-13T02:51:55.122Z,-1.18
2018-12-13T02:54:23.482Z,-1.16
2018-12-13T02:56:51.827Z,-1.04
2018-12-13T02:59:20.207Z,-0.97
2018-12-13T03:01:48.801Z,-0.97
2018-12-13T03:04:17.432Z,-0.97
2018-12-13T03:06:46.013Z,-0.98
2018-12-13T03:09:14.447Z,-0.98
2018-12-13T03:11:42.817Z,-0.99
2018-12-13T03:14:11.204Z,-0.96
2018-12-13T03:16:39.540Z,-0.94
2018-12-13T03:19:07.894Z,-0.96
2018-12-13T03:21:36.236Z,-0.97
2018-12-13T03:24:04.618Z,-0.95
2018-12-13T03:26:32.966Z,-0.99
2018-12-13T03:29:01.377Z,-0.97
2018-12-13T03:31:29.879Z,-1.00
2018-12-13T03:33:58.336Z,-1.01
2018-12-13T03:36:26.716Z,-1.03
2018-12-13T03:38:55.150Z,-1.04
2018-12-13T03:41:23.511Z,-1.02
2018-12-13T03:43:51.957Z,-1.03
2018-12-13T03:46:20.303Z,-1.04
2018-12-13T03:48:48.710Z,-1.03
2018-12-13T03:51:17.073Z,-1.01
2018-12-13T03:53:45.476Z,-1.01
2018-12-13T03:56:13.831Z,-0.98
2018-12-13T03:58:42.233Z,-1.01
2018-12-13T04:01:10.820Z,-0.99
2018-12-13T04:03:39.192Z,-0.92
2018-12-13T04:06:07.789Z,-0.93
2018-12-13T04:08:36.162Z,-0.88
2018-12-13T04:11:04.547Z,-0.85
2018-12-13T04:13:35.481Z,-0.81
2018-12-13T04:16:03.860Z,-0.73
2018-12-13T04:18:32.446Z,-0.77
2018-12-13T04:21:00.825Z,-0.77
2018-12-13T04:23:29.267Z,-0.76
2018-12-13T04:25:57.621Z,-0.72
2018-12-13T04:28:26.076Z,-0.76
2018-12-13T04:30:54.455Z,-0.79
2018-12-13T04:33:23.028Z,-0.78
2018-12-13T04:35:51.409Z,-0.76
2018-12-13T04:38:19.760Z,-0.78
2018-12-13T04:40:48.169Z,-0.76
2018-12-13T04:43:16.515Z,-0.73
2018-12-13T04:45:44.867Z,-0.69
2018-12-13T04:48:13.310Z,-0.68
2018-12-13T04:50:41.656Z,-0.59
2018-12-13T04:53:10.095Z,-0.58
2018-12-13T04:55:38.464Z,-0.59
2018-12-13T04:58:06.831Z,-0.51
2018-12-13T05:00:35.209Z,-0.49
2018-12-13T05:03:03.550Z,-0.46
2018-12-13T05:05:31.974Z,-0.48
2018-12-13T05:08:01.542Z,-0.42
2018-12-13T05:10:42.610Z,-0.38
2018-12-13T05:13:11.118Z,-0.43
2018-12-13T05:15:39.508Z,-0.39
2018-12-13T05:18:07.849Z,-0.39
2018-12-13T05:20:36.203Z,-0.46
2018-12-13T05:23:07.431Z,-0.39
2018-12-13T05:25:38.261Z,-0.38
2018-12-13T05:28:06.857Z,-0.34
2018-12-13T05:30:35.340Z,-0.33
2018-12-13T05:33:03.733Z,-0.33
2018-12-13T05:35:32.103Z,-0.31
2018-12-13T05:38:00.460Z,-0.24
2018-12-13T05:40:28.807Z,-0.29
2018-12-13T05:42:57.144Z,-0.28
2018-12-13T05:45:25.495Z,-0.29
2018-12-13T05:47:53.841Z,-0.24
2018-12-13T05:50:22.212Z,-0.26
2018-12-13T05:52:51.446Z,0.13
2018-12-13T05:55:19.795Z,0.93
2018-12-13T05:57:48.132Z,0.70
2018-12-13T06:00:16.539Z,0.87
2018-12-13T06:02:46.108Z,0.89
2018-12-13T06:05:14.654Z,1.05
2018-12-13T06:07:44.870Z,0.96
2018-12-13T06:10:13.199Z,1.25
2018-12-13T06:12:41.533Z,1.14
2018-12-13T06:15:09.874Z,1.11
2018-12-13T06:17:38.210Z,0.93
2018-12-13T06:20:06.585Z,0.66
2018-12-13T06:22:34.931Z,0.49
2018-12-13T06:25:03.321Z,0.31
2018-12-13T06:27:31.623Z,0.12
2018-12-13T06:29:59.979Z,0.09
2018-12-13T06:32:28.310Z,0.13
2018-12-13T06:34:56.675Z,0.11
2018-12-13T06:37:25.007Z,0.13
2018-12-13T06:39:53.499Z,0.06
2018-12-13T06:42:21.838Z,-0.01
2018-12-13T06:44:50.253Z,0.05
2018-12-13T06:47:18.596Z,0.08
2018-12-13T06:49:46.957Z,0.05
2018-12-13T06:52:15.373Z,0.09
2018-12-13T06:54:43.736Z,0.07
2018-12-13T06:57:12.094Z,0.05
2018-12-13T06:59:40.440Z,-0.03
2018-12-13T07:02:08.843Z,-0.02
2018-12-13T07:04:37.251Z,0.03
2018-12-13T07:07:05.609Z,0.08
2018-12-13T07:09:34.031Z,0.02
2018-12-13T07:12:02.572Z,0.01
2018-12-13T07:14:30.918Z,-0.05
2018-12-13T07:16:59.278Z,-0.05
2018-12-13T07:19:27.596Z,0.03
2018-12-13T07:21:55.954Z,0.02
2018-12-13T07:24:24.282Z,0.05
2018-12-13T07:26:52.659Z,0.09
2018-12-13T07:29:21.019Z,0.14
2018-12-13T07:31:49.359Z,0.11
2018-12-13T07:34:17.713Z,0.08
2018-12-13T07:36:46.046Z,0.11
2018-12-13T07:39:14.377Z,0.09
2018-12-13T07:41:42.707Z,0.13
2018-12-13T07:44:11.031Z,0.09
2018-12-13T07:46:39.376Z,0.03
2018-12-13T07:49:07.707Z,0.01
2018-12-13T07:51:36.055Z,0.03
2018-12-13T07:54:04.392Z,0.03
2018-12-13T07:56:32.711Z,0.12
2018-12-13T07:59:01.040Z,0.11
2018-12-13T08:01:29.410Z,0.12
2018-12-13T08:03:57.742Z,0.18
2018-12-13T08:06:26.085Z,0.26
2018-12-13T08:08:54.403Z,0.23
2018-12-13T08:11:22.736Z,0.28
2018-12-13T08:13:51.085Z,0.20
2018-12-13T08:16:19.433Z,0.29
2018-12-13T08:18:47.773Z,0.33
2018-12-13T08:21:16.139Z,0.29
2018-12-13T08:23:44.471Z,0.33
2018-12-13T08:26:12.821Z,0.36
2018-12-13T08:28:41.162Z,0.20
2018-12-13T08:31:09.526Z,0.20
2018-12-13T08:33:38.061Z,0.25
2018-12-13T08:36:06.415Z,0.18
2018-12-13T08:38:34.846Z,0.22
2018-12-13T08:41:03.184Z,0.29
2018-12-13T08:43:31.535Z,0.25
2018-12-13T08:45:59.876Z,0.22
2018-12-13T08:48:28.203Z,0.23
2018-12-13T08:50:56.545Z,0.18
2018-12-13T08:53:24.872Z,0.18
2018-12-13T08:55:53.214Z,0.28
2018-12-13T08:58:21.547Z,0.32
2018-12-13T09:00:49.992Z,0.37
2018-12-13T09:03:18.347Z,0.40
2018-12-13T09:05:46.680Z,0.37
2018-12-13T09:08:15.009Z,0.50
2018-12-13T09:10:43.377Z,0.27
2018-12-13T09:13:11.754Z,0.32
2018-12-13T09:15:40.143Z,0.44
2018-12-13T09:18:08.450Z,0.36
2018-12-13T09:20:36.778Z,0.37
2018-12-13T09:23:05.100Z,0.33
2018-12-13T09:25:33.418Z,0.39
2018-12-13T09:28:01.761Z,0.48
2018-12-13T09:30:30.093Z,0.46
2018-12-13T09:32:58.635Z,0.55
2018-12-13T09:35:26.985Z,0.53
2018-12-13T09:37:59.239Z,0.61
2018-12-13T09:40:27.690Z,0.63
2018-12-13T09:42:56.024Z,0.54
2018-12-13T09:45:24.379Z,0.49
2018-12-13T09:47:52.744Z,0.49
2018-12-13T09:50:21.108Z,0.58
2018-12-13T09:52:49.488Z,0.61
2018-12-13T09:55:17.908Z,0.66
2018-12-13T09:57:46.260Z,0.59
2018-12-13T10:00:14.603Z,0.68
2018-12-13T10:02:43.015Z,0.80
2018-12-13T10:05:11.369Z,0.69
2018-12-13T10:07:39.707Z,0.68
2018-12-13T10:10:08.133Z,0.72
2018-12-13T10:12:36.469Z,0.74
2018-12-13T10:15:05.184Z,0.72
2018-12-13T10:17:33.533Z,0.89
2018-12-13T10:20:01.856Z,0.83
2018-12-13T10:22:30.301Z,0.93
2018-12-13T10:24:58.609Z,1.01
2018-12-13T10:27:26.946Z,1.02
2018-12-13T10:29:55.287Z,0.95
2018-12-13T10:32:23.633Z,0.82
2018-12-13T10:34:51.966Z,0.86
2018-12-13T10:37:20.307Z,0.65
2018-12-13T10:39:48.637Z,0.67
2018-12-13T10:42:16.971Z,0.73
2018-12-13T10:44:45.300Z,0.63
2018-12-13T10:47:13.620Z,0.59
2018-12-13T10:49:41.935Z,0.53
2018-12-13T10:52:10.284Z,0.46
2018-12-13T10:54:38.591Z,0.32
2018-12-13T10:57:06.918Z,0.24
2018-12-13T10:59:35.240Z,0.39
2018-12-13T11:02:05.487Z,0.48
2018-12-13T11:04:33.817Z,0.55
2018-12-13T11:07:02.147Z,0.55
2018-12-13T11:09:30.481Z,0.47
2018-12-13T11:11:58.805Z,0.41
2018-12-13T11:14:27.131Z,0.43
2018-12-13T11:16:55.457Z,0.48
2018-12-13T11:19:23.800Z,0.55
2018-12-13T11:21:52.129Z,0.66
2018-12-13T11:24:20.475Z,0.81
2018-12-13T11:26:48.820Z,0.89
2018-12-13T11:32:22.264Z,1.13
2018-12-13T11:34:50.734Z,1.07
2018-12-13T11:37:20.336Z,1.01
2018-12-13T11:39:48.809Z,0.99
2018-12-13T11:42:17.758Z,1.16
2018-12-13T11:44:46.085Z,1.28
2018-12-13T11:47:14.437Z,1.61
2018-12-13T11:49:42.875Z,1.79
2018-12-13T11:52:12.063Z,1.86
2018-12-13T11:54:41.642Z,1.91
2018-12-13T11:57:10.035Z,2.03
2018-12-13T11:59:38.361Z,2.32
2018-12-13T12:02:06.895Z,2.03
2018-12-13T12:04:35.275Z,2.06
2018-12-13T12:07:03.617Z,1.89
2018-12-13T12:09:31.975Z,1.71
2018-12-13T12:12:00.383Z,1.86
2018-12-13T12:14:28.805Z,1.82
2018-12-13T12:16:57.152Z,1.83
2018-12-13T12:19:25.505Z,1.77
2018-12-13T12:21:53.964Z,1.64
2018-12-13T12:24:22.342Z,1.84
2018-12-13T12:26:50.691Z,2.01
2018-12-13T12:29:19.082Z,1.96
2018-12-13T12:31:47.421Z,2.03
2018-12-13T12:34:15.753Z,1.93
2018-12-13T12:36:44.127Z,1.92
2018-12-13T12:39:18.383Z,1.87
2018-12-13T12:41:42.931Z,1.62
2018-12-13T12:44:11.309Z,1.74
2018-12-13T12:46:39.640Z,1.60
2018-12-13T12:49:07.980Z,1.47
2018-12-13T12:51:36.347Z,1.22
2018-12-13T12:54:04.688Z,1.25
2018-12-13T12:56:33.104Z,1.11
2018-12-13T12:59:01.479Z,1.21
2018-12-13T13:01:29.799Z,1.15
2018-12-13T13:03:58.127Z,1.11
2018-12-13T13:06:26.461Z,1.02
2018-12-13T13:08:54.794Z,1.01
2018-12-13T13:11:23.127Z,1.12
2018-12-13T13:13:51.655Z,1.15
2018-12-13T13:16:19.998Z,1.03
2018-12-13T13:18:48.332Z,1.08
2018-12-13T13:21:16.744Z,1.04
2018-12-13T13:23:45.075Z,1.10
2018-12-13T13:26:13.457Z,1.14
2018-12-13T13:28:41.820Z,1.14
2018-12-13T13:31:10.227Z,1.22
2018-12-13T13:33:38.602Z,1.12
2018-12-13T13:36:07.152Z,1.14
2018-12-13T13:38:36.180Z,1.13
2018-12-13T13:41:04.546Z,1.14
2018-12-13T13:43:32.880Z,1.17
2018-12-13T13:46:01.225Z,1.20
2018-12-13T13:48:29.557Z,1.20
2018-12-13T13:50:57.861Z,1.23
2018-12-13T13:53:26.352Z,1.27
2018-12-13T13:55:54.704Z,1.27
2018-12-13T13:58:23.019Z,1.36
2018-12-13T14:00:51.368Z,1.32
2018-12-13T14:03:19.772Z,1.27
2018-12-13T14:05:48.140Z,1.20
2018-12-13T14:08:16.469Z,1.23
2018-12-13T14:10:44.796Z,1.27
2018-12-13T14:13:13.159Z,1.20
2018-12-13T14:15:41.583Z,1.18
2018-12-13T14:18:09.986Z,1.14
2018-12-13T14:20:38.336Z,1.17
2018-12-13T14:23:07.363Z,1.17
2018-12-13T14:25:35.701Z,1.16
2018-12-13T14:28:04.074Z,1.15
2018-12-13T14:30:32.397Z,1.10
2018-12-13T14:33:00.759Z,1.22
2018-12-13T14:35:29.377Z,1.21
2018-12-13T14:37:58.750Z,1.08
2018-12-13T14:40:27.099Z,1.09
2018-12-13T14:42:55.428Z,1.13
2018-12-13T14:45:23.884Z,1.05
2018-12-13T14:47:52.261Z,1.04
2018-12-13T14:50:20.613Z,1.06
2018-12-13T14:52:48.939Z,1.04
2018-12-13T14:55:17.368Z,1.06
2018-12-13T14:57:45.698Z,1.06
2018-12-13T15:00:14.141Z,1.10
2018-12-13T15:02:42.454Z,1.13
2018-12-13T15:05:11.015Z,1.14
2018-12-13T15:07:39.347Z,1.15
2018-12-13T15:10:07.676Z,1.21
2018-12-13T15:12:36.228Z,1.17
2018-12-13T15:15:04.896Z,1.10
2018-12-13T15:17:33.289Z,1.13
2018-12-13T15:20:01.629Z,1.15
2018-12-13T15:22:29.956Z,1.20
2018-12-13T15:24:58.331Z,1.16
2018-12-13T15:27:26.659Z,1.20
2018-12-13T15:29:55.099Z,1.21
2018-12-13T15:32:23.471Z,1.25
2018-12-13T15:34:51.953Z,1.25
2018-12-13T15:37:20.280Z,1.27
2018-12-13T15:39:48.621Z,1.26
2018-12-13T15:42:18.940Z,1.27
2018-12-13T15:44:47.413Z,1.23
2018-12-13T15:47:15.730Z,1.25
2018-12-13T15:49:44.450Z,1.27
2018-12-13T15:52:13.078Z,1.33
2018-12-13T15:54:41.390Z,1.34
2018-12-13T15:57:09.716Z,1.29
2018-12-13T15:59:38.665Z,1.25
2018-12-13T16:02:07.114Z,1.21
2018-12-13T16:04:35.458Z,1.23
2018-12-13T16:07:03.879Z,1.22
2018-12-13T16:09:32.230Z,1.27
2018-12-13T16:12:00.583Z,1.29
2018-12-13T16:14:28.924Z,1.30
2018-12-13T16:16:57.627Z,1.34
2018-12-13T16:19:26.068Z,1.37
2018-12-13T16:21:54.399Z,1.35
2018-12-13T16:24:22.821Z,1.31
2018-12-13T16:26:51.203Z,1.32
2018-12-13T16:29:19.588Z,1.38
2018-12-13T16:31:47.912Z,1.37
2018-12-13T16:34:16.261Z,1.37
2018-12-13T16:36:44.619Z,1.32
2018-12-13T16:39:13.011Z,1.26
2018-12-13T16:41:41.379Z,1.29
2018-12-13T16:44:09.720Z,1.27
2018-12-13T16:46:38.205Z,1.24
2018-12-13T16:49:06.577Z,1.24
2018-12-13T16:51:34.928Z,1.28
2018-12-13T16:54:03.298Z,1.34
2018-12-13T16:56:31.652Z,1.32
2018-12-13T16:59:00.012Z,1.29
2018-12-13T17:01:28.391Z,1.27
2018-12-13T17:03:56.756Z,1.30
2018-12-13T17:06:25.170Z,1.33
2018-12-13T17:08:53.475Z,1.38
2018-12-13T17:11:21.811Z,1.35
2018-12-13T17:13:50.160Z,1.32
2018-12-13T17:16:18.496Z,1.34
2018-12-13T17:18:46.831Z,1.36
2018-12-13T17:21:15.243Z,1.39
2018-12-13T17:23:44.059Z,1.38
2018-12-13T17:26:12.413Z,1.36
2018-12-13T17:28:40.893Z,1.40
2018-12-13T17:31:09.230Z,1.43
2018-12-13T17:33:37.548Z,1.43
2018-12-13T17:36:06.032Z,1.42
2018-12-13T17:38:34.868Z,1.42
2018-12-13T17:41:03.302Z,1.43
2018-12-13T17:43:31.644Z,1.41
2018-12-13T17:46:00.143Z,1.41
2018-12-13T17:48:28.474Z,1.44
2018-12-13T17:50:56.819Z,1.54
2018-12-13T17:53:25.150Z,1.68
2018-12-13T17:55:53.579Z,1.95
2018-12-13T17:58:21.907Z,1.80
2018-12-13T18:00:50.553Z,1.68
2018-12-13T18:03:18.922Z,1.62
2018-12-13T18:05:47.253Z,1.59
2018-12-13T18:08:15.582Z,1.53
2018-12-13T18:10:43.958Z,1.50
2018-12-13T18:13:12.269Z,1.47
2018-12-13T18:15:40.597Z,1.47
2018-12-13T18:18:08.926Z,1.40
2018-12-13T18:20:37.261Z,1.31
2018-12-13T18:23:05.600Z,1.35
2018-12-13T18:25:34.031Z,1.31
2018-12-13T18:28:02.404Z,1.34
2018-12-13T18:30:30.728Z,1.32
2018-12-13T18:32:59.175Z,1.32
2018-12-13T18:35:27.566Z,1.35
2018-12-13T18:37:55.931Z,1.34
2018-12-13T18:40:24.387Z,1.31
2018-12-13T18:42:52.791Z,1.31
2018-12-13T18:45:23.052Z,1.30
2018-12-13T18:47:51.376Z,1.23
2018-12-13T18:50:19.982Z,1.26
2018-12-13T18:52:48.382Z,1.24
2018-12-13T18:55:16.802Z,1.24
2018-12-13T18:57:45.124Z,1.19
2018-12-13T19:00:13.659Z,1.19
2018-12-13T19:02:42.191Z,1.25
2018-12-13T19:05:10.614Z,1.30
2018-12-13T19:07:39.026Z,1.27
2018-12-13T19:10:07.549Z,1.33
2018-12-13T19:12:35.884Z,1.29
2018-12-13T19:15:04.876Z,1.26
2018-12-13T19:17:33.242Z,1.29
2018-12-13T19:20:01.725Z,1.26
2018-12-13T19:22:30.103Z,1.19
2018-12-13T19:24:58.447Z,1.23
2018-12-13T19:27:26.877Z,1.21
2018-12-13T19:29:55.192Z,1.21
2018-12-13T19:32:23.760Z,1.19
2018-12-13T19:34:52.100Z,1.20
2018-12-13T19:37:21.007Z,1.16
2018-12-13T19:39:49.368Z,1.17
2018-12-13T19:42:17.731Z,1.20
2018-12-13T19:44:46.062Z,1.27
2018-12-13T19:47:14.414Z,1.26
2018-12-13T19:49:42.720Z,1.29
2018-12-13T19:52:11.061Z,1.31
2018-12-13T19:54:39.608Z,1.29
2018-12-13T19:57:07.959Z,1.25
2018-12-13T19:59:37.961Z,1.29
2018-12-13T20:02:07.128Z,1.30
2018-12-13T20:04:35.510Z,1.30
2018-12-13T20:07:03.885Z,1.29
2018-12-13T20:09:32.225Z,1.26
2018-12-13T20:12:00.672Z,1.20
2018-12-13T20:14:29.223Z,1.21
2018-12-13T20:16:57.600Z,1.22
2018-12-13T20:19:25.923Z,1.18
2018-12-13T20:21:54.254Z,1.22
2018-12-13T20:24:22.585Z,1.17
2018-12-13T20:26:51.016Z,1.21
2018-12-13T20:29:19.865Z,1.19
2018-12-13T20:31:48.197Z,1.18
2018-12-13T20:34:16.579Z,1.19
2018-12-13T20:36:44.960Z,1.16
2018-12-13T20:39:13.287Z,1.13
2018-12-13T20:41:41.715Z,1.15
2018-12-13T20:44:10.047Z,1.17
2018-12-13T20:46:38.468Z,1.14
2018-12-13T20:49:06.775Z,1.09
2018-12-13T20:51:35.230Z,1.11
2018-12-13T20:54:03.830Z,1.02
2018-12-13T20:56:32.295Z,1.03
2018-12-13T20:59:00.685Z,1.01
2018-12-13T21:01:29.336Z,0.96
2018-12-13T21:03:57.715Z,0.97
2018-12-13T21:06:26.323Z,1.01
2018-12-13T21:08:54.703Z,0.98
2018-12-13T21:11:23.045Z,1.00
2018-12-13T21:13:51.385Z,0.98
2018-12-13T21:16:19.824Z,0.98
2018-12-13T21:18:48.232Z,0.97
2018-12-13T21:21:16.560Z,1.01
2018-12-13T21:23:44.969Z,1.07
2018-12-13T21:26:13.426Z,1.08
2018-12-13T21:28:41.792Z,1.05
2018-12-13T21:31:10.092Z,1.08
2018-12-13T21:33:38.467Z,1.08
2018-12-13T21:36:06.908Z,1.07
2018-12-13T21:38:35.255Z,1.06
2018-12-13T21:41:03.644Z,1.11
2018-12-13T21:43:32.035Z,1.12
2018-12-13T21:46:00.387Z,1.10
2018-12-13T21:48:28.746Z,1.09
2018-12-13T21:50:57.168Z,1.07
2018-12-13T21:53:25.701Z,1.07
2018-12-13T21:55:54.639Z,1.01
2018-12-13T21:58:23.031Z,1.02
2018-12-13T22:00:51.426Z,1.03
2018-12-13T22:03:19.875Z,0.97
2018-12-13T22:05:52.047Z,0.99
2018-12-13T22:08:20.392Z,1.01
2018-12-13T22:10:48.746Z,0.99
2018-12-13T22:13:17.063Z,0.99
2018-12-13T22:15:45.599Z,0.97
2018-12-13T22:18:14.059Z,0.98
2018-12-13T22:20:42.419Z,1.03
2018-12-13T22:23:10.772Z,0.98
2018-12-13T22:25:39.235Z,1.02
2018-12-13T22:28:07.695Z,1.01
2018-12-13T22:30:36.072Z,1.02
2018-12-13T22:33:04.420Z,1.00
2018-12-13T22:35:33.152Z,0.96
2018-12-13T22:38:01.543Z,0.97
2018-12-13T22:40:29.920Z,0.98
2018-12-13T22:42:58.240Z,1.01
2018-12-13T22:45:26.583Z,1.01
2018-12-13T22:47:55.026Z,1.01
2018-12-13T22:50:23.342Z,0.96
2018-12-13T22:52:52.454Z,0.93
2018-12-13T22:55:21.051Z,0.92
2018-12-13T22:57:49.466Z,0.98
2018-12-13T23:00:17.928Z,0.98
2018-12-13T23:02:46.274Z,0.96
2018-12-13T23:05:14.635Z,0.97
2018-12-13T23:07:42.980Z,0.99
2018-12-13T23:10:11.305Z,0.95
2018-12-13T23:12:39.722Z,0.96
2018-12-13T23:15:08.706Z,0.97
2018-12-13T23:17:37.125Z,0.98
2018-12-13T23:20:05.636Z,0.98
2018-12-13T23:22:33.965Z,0.94
2018-12-13T23:25:02.302Z,0.96
2018-12-13T23:27:30.966Z,0.98
2018-12-13T23:29:59.261Z,0.94
2018-12-13T23:32:27.594Z,0.90
2018-12-13T23:34:55.960Z,0.96
2018-12-13T23:37:24.338Z,1.00
2018-12-13T23:39:52.782Z,0.96
2018-12-13T23:42:21.474Z,0.98
2018-12-13T23:44:49.868Z,1.06
2018-12-13T23:47:18.196Z,1.02
2018-12-13T23:49:46.655Z,0.97
2018-12-13T23:52:15.027Z,1.01
2018-12-13T23:54:43.383Z,1.11
2018-12-13T23:57:11.760Z,1.05
2018-12-13T23:59:40.179Z,1.09
